createdAt,value
2018-09-18T00:01:51.220Z,53.22
2018-09-18T00:04:20.388Z,53.71
2018-09-18T00:06:49.583Z,53.76
2018-09-18T00:09:18.806Z,54.30
2018-09-18T00:11:47.946Z,54.00
2018-09-18T00:14:17.189Z,54.37
2018-09-18T00:16:46.341Z,54.13
2018-09-18T00:19:15.640Z,55.01
2018-09-18T00:21:44.750Z,54.90
2018-09-18T00:24:14.006Z,54.62
2018-09-18T00:26:43.188Z,55.08
2018-09-18T00:29:12.545Z,55.90
2018-09-18T00:31:41.786Z,55.83
2018-09-18T00:34:10.982Z,55.41
2018-09-18T00:36:40.171Z,55.97
2018-09-18T00:39:10.303Z,55.79
2018-09-18T00:41:39.544Z,55.74
2018-09-18T00:44:08.839Z,56.12
2018-09-18T00:46:38.057Z,56.25
2018-09-18T00:49:07.183Z,55.49
2018-09-18T00:51:36.557Z,55.64
2018-09-18T00:54:05.757Z,55.87
2018-09-18T00:56:35.099Z,55.29
2018-09-18T00:59:04.302Z,55.72
2018-09-18T01:01:33.579Z,55.36
2018-09-18T01:04:02.970Z,56.01
2018-09-18T01:06:32.140Z,55.88
2018-09-18T01:09:01.368Z,56.10
2018-09-18T01:11:30.639Z,56.36
2018-09-18T01:13:59.807Z,55.47
2018-09-18T01:16:29.065Z,55.32
2018-09-18T01:18:58.224Z,55.98
2018-09-18T01:21:27.414Z,55.81
2018-09-18T01:23:56.613Z,55.51
2018-09-18T01:26:25.815Z,56.00
2018-09-18T01:28:55.061Z,55.11
2018-09-18T01:31:24.179Z,55.48
2018-09-18T01:33:53.363Z,55.12
2018-09-18T01:36:22.513Z,55.08
2018-09-18T01:38:51.647Z,55.22
2018-09-18T01:41:20.917Z,55.20
2018-09-18T01:43:50.208Z,56.24
2018-09-18T01:46:19.309Z,55.41
2018-09-18T01:48:48.553Z,55.18
2018-09-18T01:51:17.720Z,56.11
2018-09-18T01:53:46.949Z,55.12
2018-09-18T01:56:16.148Z,54.98
2018-09-18T01:58:45.332Z,54.97
2018-09-18T02:01:14.550Z,55.18
2018-09-18T02:03:43.674Z,55.53
2018-09-18T02:06:12.885Z,55.12
2018-09-18T02:08:42.135Z,54.98
2018-09-18T02:11:11.480Z,55.74
2018-09-18T02:13:40.748Z,55.39
2018-09-18T02:16:10.061Z,55.88
2018-09-18T02:18:39.250Z,55.57
2018-09-18T02:21:08.549Z,55.29
2018-09-18T02:23:37.806Z,56.43
2018-09-18T02:26:07.155Z,55.84
2018-09-18T02:28:36.289Z,55.37
2018-09-18T02:31:05.494Z,55.47
2018-09-18T02:33:34.692Z,55.23
2018-09-18T02:36:04.491Z,54.95
2018-09-18T02:38:33.695Z,54.77
2018-09-18T02:41:02.948Z,55.22
2018-09-18T02:43:32.164Z,55.76
2018-09-18T02:46:01.298Z,55.12
2018-09-18T02:48:30.599Z,55.61
2018-09-18T02:50:59.943Z,55.70
2018-09-18T02:53:29.177Z,55.68
2018-09-18T02:55:58.367Z,55.80
2018-09-18T02:58:27.613Z,55.80
2018-09-18T03:00:56.807Z,55.82
2018-09-18T03:03:26.005Z,55.50
2018-09-18T03:05:55.211Z,56.40
2018-09-18T03:08:24.436Z,55.55
2018-09-18T03:10:53.579Z,55.25
2018-09-18T03:13:22.843Z,55.81
2018-09-18T03:15:51.951Z,55.91
2018-09-18T03:18:21.463Z,55.46
2018-09-18T03:20:50.705Z,56.16
2018-09-18T03:23:19.825Z,55.50
2018-09-18T03:25:49.095Z,54.76
2018-09-18T03:28:18.420Z,55.23
2018-09-18T03:30:47.646Z,55.36
2018-09-18T03:33:16.786Z,55.17
2018-09-18T03:35:46.510Z,55.66
2018-09-18T03:38:15.570Z,54.92
2018-09-18T03:40:44.798Z,56.42
2018-09-18T03:43:14.047Z,55.10
2018-09-18T03:45:43.190Z,55.29
2018-09-18T03:48:12.374Z,55.75
2018-09-18T03:50:41.667Z,55.10
2018-09-18T03:53:10.833Z,55.43
2018-09-18T03:55:40.066Z,55.44
2018-09-18T03:58:09.238Z,55.26
2018-09-18T04:00:38.400Z,55.78
2018-09-18T04:03:07.574Z,55.10
2018-09-18T04:05:36.815Z,56.49
2018-09-18T04:08:06.151Z,55.71
2018-09-18T04:10:35.361Z,55.60
2018-09-18T04:13:04.663Z,55.81
2018-09-18T04:15:37.829Z,55.50
2018-09-18T04:18:07.036Z,55.96
2018-09-18T04:20:36.191Z,55.30
2018-09-18T04:23:05.556Z,55.37
2018-09-18T04:25:34.680Z,55.69
2018-09-18T04:28:03.911Z,54.74
2018-09-18T04:30:33.123Z,55.28
2018-09-18T04:33:02.352Z,55.80
2018-09-18T04:35:31.634Z,55.30
2018-09-18T04:38:00.860Z,55.24
2018-09-18T04:40:30.060Z,55.29
2018-09-18T04:42:59.266Z,55.40
2018-09-18T04:45:28.510Z,55.98
2018-09-18T04:47:57.650Z,55.57
2018-09-18T04:50:26.812Z,54.61
2018-09-18T04:52:55.953Z,54.72
2018-09-18T04:55:25.251Z,54.91
2018-09-18T04:57:54.404Z,54.50
2018-09-18T05:00:23.672Z,55.12
2018-09-18T05:02:52.872Z,55.23
2018-09-18T05:05:22.052Z,55.30
2018-09-18T05:07:51.295Z,55.52
2018-09-18T05:10:20.578Z,54.47
2018-09-18T05:12:49.792Z,54.97
2018-09-18T05:15:18.967Z,54.68
2018-09-18T05:17:48.244Z,54.46
2018-09-18T05:20:17.426Z,54.90
2018-09-18T05:22:46.571Z,55.41
2018-09-18T05:25:15.715Z,55.09
2018-09-18T05:27:44.923Z,55.10
2018-09-18T05:30:14.063Z,55.20
2018-09-18T05:32:43.353Z,55.08
2018-09-18T05:35:12.573Z,55.61
2018-09-18T05:37:41.799Z,54.70
2018-09-18T05:40:10.975Z,54.48
2018-09-18T05:42:40.415Z,54.36
2018-09-18T05:45:09.645Z,54.85
2018-09-18T05:47:38.896Z,54.90
2018-09-18T05:50:08.141Z,53.99
2018-09-18T05:52:37.384Z,54.90
2018-09-18T05:55:06.807Z,54.22
2018-09-18T05:57:35.975Z,53.71
2018-09-18T06:00:05.358Z,54.62
2018-09-18T06:02:34.738Z,53.27
2018-09-18T06:05:03.911Z,53.41
2018-09-18T06:07:33.078Z,52.34
2018-09-18T06:10:02.337Z,52.76
2018-09-18T06:12:31.506Z,52.16
2018-09-18T06:15:00.580Z,51.68
2018-09-18T06:17:29.721Z,50.32
2018-09-18T06:19:58.851Z,50.34
2018-09-18T06:22:28.067Z,50.04
2018-09-18T06:24:57.259Z,48.52
2018-09-18T06:27:26.439Z,49.52
2018-09-18T06:29:55.741Z,47.80
2018-09-18T06:32:24.927Z,47.30
2018-09-18T06:34:54.048Z,46.96
2018-09-18T06:37:23.245Z,46.70
2018-09-18T06:39:52.472Z,47.31
2018-09-18T06:42:21.728Z,47.23
2018-09-18T06:44:50.855Z,47.10
2018-09-18T06:47:20.044Z,46.30
2018-09-18T06:49:49.212Z,46.46
2018-09-18T06:52:18.389Z,45.46
2018-09-18T06:54:47.571Z,46.07
2018-09-18T06:57:16.829Z,45.76
2018-09-18T06:59:45.940Z,44.79
2018-09-18T07:02:15.324Z,44.74
2018-09-18T07:04:44.430Z,45.09
2018-09-18T07:07:13.642Z,43.76
2018-09-18T07:09:42.858Z,43.86
2018-09-18T07:12:12.035Z,43.29
2018-09-18T07:14:41.279Z,44.51
2018-09-18T07:17:10.455Z,42.85
2018-09-18T07:19:39.750Z,42.89
2018-09-18T07:22:08.963Z,43.54
2018-09-18T07:24:38.146Z,42.04
2018-09-18T07:27:07.484Z,43.07
2018-09-18T07:29:36.722Z,42.71
2018-09-18T07:32:05.922Z,41.94
2018-09-18T07:34:35.039Z,42.42
2018-09-18T07:37:04.300Z,40.53
2018-09-18T07:39:33.461Z,40.18
2018-09-18T07:42:02.567Z,43.32
2018-09-18T07:44:31.892Z,41.48
2018-09-18T07:47:01.096Z,41.73
2018-09-18T07:49:30.309Z,40.28
2018-09-18T07:51:59.525Z,40.16
2018-09-18T07:54:28.820Z,39.74
2018-09-18T07:56:57.958Z,39.00
2018-09-18T07:59:27.132Z,38.06
2018-09-18T08:01:56.417Z,37.82
2018-09-18T08:04:25.531Z,39.60
2018-09-18T08:06:54.741Z,39.85
2018-09-18T08:09:23.953Z,37.81
2018-09-18T08:11:53.132Z,38.02
2018-09-18T08:14:22.427Z,37.81
2018-09-18T08:16:51.675Z,37.07
2018-09-18T08:19:20.872Z,36.59
2018-09-18T08:21:49.955Z,36.16
2018-09-18T08:24:19.136Z,35.53
2018-09-18T08:26:48.337Z,35.32
2018-09-18T08:29:17.487Z,35.62
2018-09-18T08:31:46.628Z,34.55
2018-09-18T08:34:15.801Z,35.68
2018-09-18T08:36:44.943Z,34.92
2018-09-18T08:39:14.135Z,35.54
2018-09-18T08:41:43.403Z,35.39
2018-09-18T08:44:12.518Z,35.79
2018-09-18T08:46:41.823Z,36.81
2018-09-18T08:49:11.135Z,35.38
2018-09-18T08:51:40.427Z,35.32
2018-09-18T08:54:09.619Z,34.60
2018-09-18T08:56:38.861Z,35.10
2018-09-18T08:59:08.127Z,34.26
2018-09-18T09:01:37.326Z,34.10
2018-09-18T09:04:06.537Z,33.12
2018-09-18T09:06:35.834Z,34.50
2018-09-18T09:09:09.471Z,31.49
2018-09-18T09:11:38.535Z,31.70
2018-09-18T09:14:07.914Z,30.50
2018-09-18T09:16:37.055Z,30.94
2018-09-18T09:19:06.243Z,32.04
2018-09-18T09:21:35.514Z,33.05
2018-09-18T09:24:04.695Z,32.71
2018-09-18T09:26:33.847Z,31.81
2018-09-18T09:29:03.082Z,31.87
2018-09-18T09:31:32.322Z,31.57
2018-09-18T09:34:01.550Z,31.75
2018-09-18T09:36:30.626Z,30.34
2018-09-18T09:38:59.832Z,29.92
2018-09-18T09:41:28.986Z,29.79
2018-09-18T09:43:58.080Z,29.57
2018-09-18T09:46:27.327Z,29.77
2018-09-18T09:48:56.520Z,29.64
2018-09-18T09:51:25.705Z,28.41
2018-09-18T09:53:54.854Z,30.46
2018-09-18T09:56:23.977Z,28.67
2018-09-18T09:58:53.124Z,30.76
2018-09-18T10:01:27.678Z,29.34
2018-09-18T10:03:57.145Z,29.67
2018-09-18T10:06:26.752Z,29.26
2018-09-18T10:08:56.601Z,28.64
2018-09-18T10:11:25.726Z,28.04
2018-09-18T10:13:54.983Z,27.58
2018-09-18T10:16:24.155Z,27.43
2018-09-18T10:18:53.359Z,27.66
2018-09-18T10:21:22.564Z,27.95
2018-09-18T10:26:33.177Z,27.43
2018-09-18T10:29:02.307Z,27.63
2018-09-18T10:31:31.550Z,26.59
2018-09-18T10:34:01.034Z,28.05
2018-09-18T10:36:30.254Z,28.57
2018-09-18T10:38:59.429Z,27.63
2018-09-18T10:41:28.710Z,30.26
2018-09-18T10:43:57.725Z,30.21
2018-09-18T10:46:26.906Z,30.76
2018-09-18T10:48:57.026Z,29.91
2018-09-18T10:51:26.360Z,30.12
2018-09-18T10:53:55.866Z,30.37
2018-09-18T10:56:24.997Z,30.92
2018-09-18T10:58:54.163Z,30.44
2018-09-18T11:01:23.304Z,30.73
2018-09-18T11:03:52.493Z,31.58
2018-09-18T11:06:21.604Z,31.39
2018-09-18T11:08:50.736Z,30.14
2018-09-18T11:11:19.960Z,30.66
2018-09-18T11:13:49.216Z,29.87
2018-09-18T11:16:18.363Z,29.25
2018-09-18T11:18:47.590Z,29.67
2018-09-18T11:21:16.709Z,30.61
2018-09-18T11:23:45.920Z,28.62
2018-09-18T11:26:15.064Z,28.09
2018-09-18T11:28:44.208Z,27.16
2018-09-18T11:31:13.406Z,27.25
2018-09-18T11:33:42.567Z,25.81
2018-09-18T11:36:11.861Z,25.62
2018-09-18T11:38:41.008Z,24.98
2018-09-18T11:41:10.145Z,25.73
2018-09-18T11:43:39.311Z,25.76
2018-09-18T11:46:08.657Z,25.30
2018-09-18T11:48:37.918Z,25.24
2018-09-18T11:51:07.174Z,25.34
2018-09-18T11:53:36.319Z,24.71
2018-09-18T11:56:05.557Z,25.48
2018-09-18T11:58:34.718Z,24.92
2018-09-18T12:01:04.455Z,24.51
2018-09-18T12:03:33.643Z,24.67
2018-09-18T12:06:02.846Z,24.59
2018-09-18T12:08:31.936Z,24.38
2018-09-18T12:11:01.478Z,23.31
2018-09-18T12:13:30.616Z,23.00
2018-09-18T12:15:59.775Z,22.15
2018-09-18T12:18:29.018Z,22.29
2018-09-18T12:20:58.139Z,21.52
2018-09-18T12:23:27.578Z,22.68
2018-09-18T12:25:56.920Z,22.52
2018-09-18T12:28:26.075Z,23.13
2018-09-18T12:30:55.150Z,22.28
2018-09-18T12:33:24.431Z,22.92
2018-09-18T12:35:53.581Z,22.69
2018-09-18T12:38:22.735Z,21.94
2018-09-18T12:40:51.955Z,21.78
2018-09-18T12:43:21.114Z,22.23
2018-09-18T12:45:50.311Z,22.14
2018-09-18T12:48:19.578Z,21.49
2018-09-18T12:50:48.822Z,22.08
2018-09-18T12:53:17.930Z,23.05
2018-09-18T12:55:47.207Z,22.23
2018-09-18T12:58:16.341Z,22.35
2018-09-18T13:00:45.519Z,21.65
2018-09-18T13:03:14.730Z,21.94
2018-09-18T13:05:44.023Z,21.18
2018-09-18T13:08:13.156Z,21.81
2018-09-18T13:10:42.375Z,21.40
2018-09-18T13:13:11.499Z,21.61
2018-09-18T13:15:40.773Z,21.35
2018-09-18T13:18:09.911Z,21.86
2018-09-18T13:20:39.151Z,21.24
2018-09-18T13:23:08.279Z,22.51
2018-09-18T13:25:37.596Z,21.85
2018-09-18T13:28:06.384Z,20.76
2018-09-18T13:30:35.535Z,21.74
2018-09-18T13:33:04.737Z,21.72
2018-09-18T13:35:33.878Z,21.21
2018-09-18T13:38:03.009Z,21.82
2018-09-18T13:40:32.308Z,21.12
2018-09-18T13:43:01.531Z,21.54
2018-09-18T13:45:30.700Z,22.15
2018-09-18T13:47:59.987Z,22.03
2018-09-18T13:50:29.257Z,22.19
2018-09-18T13:52:58.303Z,22.50
2018-09-18T13:55:27.614Z,22.57
2018-09-18T13:57:56.823Z,22.81
2018-09-18T14:00:25.946Z,22.09
2018-09-18T14:02:55.115Z,22.08
2018-09-18T14:05:24.261Z,23.04
2018-09-18T14:07:53.459Z,22.43
2018-09-18T14:10:22.654Z,22.99
2018-09-18T14:12:51.959Z,22.81
2018-09-18T14:15:21.184Z,23.30
2018-09-18T14:17:50.519Z,23.48
2018-09-18T14:20:19.762Z,23.31
2018-09-18T14:22:48.870Z,23.14
2018-09-18T14:25:18.162Z,23.80
2018-09-18T14:27:47.314Z,23.15
2018-09-18T14:30:16.433Z,23.58
2018-09-18T14:32:45.674Z,23.82
2018-09-18T14:35:14.797Z,23.95
2018-09-18T14:37:44.077Z,24.85
2018-09-18T14:40:13.281Z,24.95
2018-09-18T14:42:42.391Z,24.57
2018-09-18T14:45:11.597Z,25.07
2018-09-18T14:47:40.841Z,26.18
2018-09-18T14:50:09.999Z,25.66
2018-09-18T14:52:39.129Z,26.48
2018-09-18T14:55:08.373Z,25.96
2018-09-18T14:57:37.588Z,26.65
2018-09-18T15:00:06.814Z,25.83
2018-09-18T15:02:36.169Z,26.42
2018-09-18T15:05:05.361Z,25.91
2018-09-18T15:07:34.477Z,27.16
2018-09-18T15:10:03.783Z,26.90
2018-09-18T15:12:33.066Z,26.86
2018-09-18T15:15:02.283Z,27.32
2018-09-18T15:17:34.541Z,27.78
2018-09-18T15:20:03.732Z,28.41
2018-09-18T15:22:32.875Z,27.99
2018-09-18T15:25:02.073Z,28.20
2018-09-18T15:27:31.334Z,28.03
2018-09-18T15:30:00.460Z,29.06
2018-09-18T15:32:29.707Z,29.20
2018-09-18T15:34:58.866Z,29.23
2018-09-18T15:37:28.132Z,30.17
2018-09-18T15:39:57.672Z,30.53
2018-09-18T15:42:26.864Z,30.24
2018-09-18T15:44:56.096Z,30.53
2018-09-18T15:47:25.424Z,31.48
2018-09-18T15:49:54.626Z,31.79
2018-09-18T15:52:23.763Z,31.62
2018-09-18T15:54:53.060Z,32.13
2018-09-18T15:57:22.363Z,32.35
2018-09-18T15:59:51.885Z,32.25
2018-09-18T16:02:21.150Z,31.83
2018-09-18T16:04:50.303Z,32.69
2018-09-18T16:07:19.465Z,32.41
2018-09-18T16:09:48.801Z,32.69
2018-09-18T16:12:18.064Z,33.21
2018-09-18T16:14:47.346Z,33.75
2018-09-18T16:17:16.455Z,33.55
2018-09-18T16:19:45.752Z,34.70
2018-09-18T16:22:14.902Z,35.13
2018-09-18T16:24:44.894Z,33.64
2018-09-18T16:27:14.008Z,35.04
2018-09-18T16:29:43.361Z,35.20
2018-09-18T16:32:12.678Z,35.67
2018-09-18T16:34:41.907Z,36.05
2018-09-18T16:37:11.144Z,35.99
2018-09-18T16:39:40.341Z,36.11
2018-09-18T16:42:09.554Z,34.78
2018-09-18T16:44:38.794Z,35.83
2018-09-18T16:47:08.181Z,35.22
2018-09-18T17:31:15.500Z,39.69
2018-09-18T17:33:44.940Z,40.83
2018-09-18T17:36:14.400Z,41.14
2018-09-18T18:17:09.177Z,43.49
2018-09-18T18:19:38.788Z,44.20
2018-09-18T20:59:07.065Z,59.31
2018-09-18T21:01:36.732Z,58.99
2018-09-18T21:10:17.210Z,60.22
2018-09-18T21:12:46.528Z,61.07
2018-09-18T21:15:15.828Z,60.62
2018-09-18T21:17:45.584Z,61.68
2018-09-18T21:20:15.023Z,62.01
2018-09-18T21:26:06.200Z,63.09
2018-09-18T21:28:35.590Z,62.59
2018-09-18T21:31:05.118Z,62.96
2018-09-18T21:33:35.334Z,63.13
2018-09-18T21:36:04.724Z,63.74
2018-09-18T21:38:34.867Z,63.66
2018-09-18T21:41:04.237Z,63.21
2018-09-18T21:43:33.753Z,63.50
2018-09-18T21:46:04.838Z,63.49
2018-09-18T21:48:34.319Z,63.29
2018-09-18T21:51:03.705Z,63.91
2018-09-18T21:53:33.079Z,65.11
2018-09-18T21:56:09.290Z,64.29
2018-09-18T22:08:17.629Z,65.44
2018-09-18T22:10:54.307Z,65.95
2018-09-18T22:13:24.634Z,66.44
2018-09-18T22:15:54.256Z,66.49
2018-09-18T22:18:23.709Z,67.34
2018-09-18T22:21:17.781Z,67.82
2018-09-18T22:23:47.159Z,67.70
2018-09-18T22:26:16.581Z,68.46
2018-09-18T22:28:46.079Z,68.28
2018-09-18T22:31:15.570Z,68.01
2018-09-18T22:33:45.463Z,68.62
2018-09-18T22:36:14.864Z,68.73
2018-09-18T22:38:44.240Z,68.02
2018-09-18T22:41:13.689Z,67.64
2018-09-18T22:46:54.710Z,67.96
2018-09-18T22:49:24.065Z,67.49
2018-09-18T23:49:07.763Z,69.12
2018-09-18T23:51:37.145Z,69.56
2018-09-18T23:54:07.030Z,69.11
2018-09-18T23:56:36.397Z,70.09
2018-09-18T23:59:06.044Z,69.62
